sensor_id;sensor_type;location;lat;lon;timestamp;P1;durP1;ratioP1;P2;durP2;ratioP2
47669;SDS011;33408;52.062;11.722;2023-01-23T00:02:06;35.55;;;22.95;;
47669;SDS011;33408;52.062;11.722;2023-01-23T00:04:33;33.88;;;21.17;;
47669;SDS011;33408;52.062;11.722;2023-01-23T00:07:00;30.92;;;22.00;;
47669;SDS011;33408;52.062;11.722;2023-01-23T00:09:27;34.70;;;23.75;;
47669;SDS011;33408;52.062;11.722;2023-01-23T00:11:54;34.42;;;22.30;;
47669;SDS011;33408;52.062;11.722;2023-01-23T00:14:20;30.35;;;22.48;;
47669;SDS011;33408;52.062;11.722;2023-01-23T00:16:48;35.95;;;23.80;;
47669;SDS011;33408;52.062;11.722;2023-01-23T00:19:15;36.58;;;23.55;;
47669;SDS011;33408;52.062;11.722;2023-01-23T00:21:41;38.50;;;23.90;;
47669;SDS011;33408;52.062;11.722;2023-01-23T00:24:09;32.22;;;21.92;;
47669;SDS011;33408;52.062;11.722;2023-01-23T00:26:37;32.65;;;22.70;;
47669;SDS011;33408;52.062;11.722;2023-01-23T00:29:03;32.35;;;22.17;;
47669;SDS011;33408;52.062;11.722;2023-01-23T00:31:31;33.10;;;23.33;;
47669;SDS011;33408;52.062;11.722;2023-01-23T00:34:01;32.08;;;20.60;;
47669;SDS011;33408;52.062;11.722;2023-01-23T00:36:31;33.47;;;22.30;;
47669;SDS011;33408;52.062;11.722;2023-01-23T00:38:58;32.63;;;22.15;;
47669;SDS011;33408;52.062;11.722;2023-01-23T00:41:26;31.77;;;21.98;;
47669;SDS011;33408;52.062;11.722;2023-01-23T00:43:52;31.83;;;22.88;;
47669;SDS011;33408;52.062;11.722;2023-01-23T00:46:19;33.33;;;23.50;;
47669;SDS011;33408;52.062;11.722;2023-01-23T00:48:46;34.70;;;24.10;;
47669;SDS011;33408;52.062;11.722;2023-01-23T00:51:15;30.35;;;22.02;;
47669;SDS011;33408;52.062;11.722;2023-01-23T00:53:41;31.40;;;21.80;;
47669;SDS011;33408;52.062;11.722;2023-01-23T00:56:08;31.38;;;22.13;;
47669;SDS011;33408;52.062;11.722;2023-01-23T00:58:35;33.67;;;21.83;;
47669;SDS011;33408;52.062;11.722;2023-01-23T01:01:01;32.63;;;22.77;;
47669;SDS011;33408;52.062;11.722;2023-01-23T01:03:28;32.22;;;21.83;;
47669;SDS011;33408;52.062;11.722;2023-01-23T01:05:55;33.33;;;23.02;;
47669;SDS011;33408;52.062;11.722;2023-01-23T01:08:23;36.05;;;22.65;;
47669;SDS011;33408;52.062;11.722;2023-01-23T01:10:49;33.95;;;22.45;;
47669;SDS011;33408;52.062;11.722;2023-01-23T01:13:17;33.95;;;21.85;;
47669;SDS011;33408;52.062;11.722;2023-01-23T01:15:45;33.53;;;21.13;;
47669;SDS011;33408;52.062;11.722;2023-01-23T01:18:13;34.28;;;22.80;;
47669;SDS011;33408;52.062;11.722;2023-01-23T01:20:40;31.05;;;21.35;;
47669;SDS011;33408;52.062;11.722;2023-01-23T01:23:07;32.47;;;22.05;;
47669;SDS011;33408;52.062;11.722;2023-01-23T01:25:36;35.00;;;23.20;;
47669;SDS011;33408;52.062;11.722;2023-01-23T01:28:03;36.05;;;23.13;;
47669;SDS011;33408;52.062;11.722;2023-01-23T01:30:30;35.60;;;22.48;;
47669;SDS011;33408;52.062;11.722;2023-01-23T01:32:57;32.58;;;22.17;;
47669;SDS011;33408;52.062;11.722;2023-01-23T01:35:23;34.00;;;22.05;;
47669;SDS011;33408;52.062;11.722;2023-01-23T01:37:50;36.25;;;23.15;;
47669;SDS011;33408;52.062;11.722;2023-01-23T01:40:17;38.28;;;23.50;;
47669;SDS011;33408;52.062;11.722;2023-01-23T01:42:48;38.30;;;24.60;;
47669;SDS011;33408;52.062;11.722;2023-01-23T01:48:22;34.33;;;22.30;;
47669;SDS011;33408;52.062;11.722;2023-01-23T01:50:51;34.92;;;22.63;;
47669;SDS011;33408;52.062;11.722;2023-01-23T01:53:19;36.30;;;24.67;;
47669;SDS011;33408;52.062;11.722;2023-01-23T01:55:48;36.97;;;24.15;;
47669;SDS011;33408;52.062;11.722;2023-01-23T01:58:16;35.22;;;23.75;;
47669;SDS011;33408;52.062;11.722;2023-01-23T02:00:43;36.03;;;23.98;;
47669;SDS011;33408;52.062;11.722;2023-01-23T02:03:10;37.78;;;24.02;;
47669;SDS011;33408;52.062;11.722;2023-01-23T02:05:38;36.45;;;24.60;;
47669;SDS011;33408;52.062;11.722;2023-01-23T02:08:09;38.13;;;24.83;;
47669;SDS011;33408;52.062;11.722;2023-01-23T02:10:42;34.78;;;23.85;;
47669;SDS011;33408;52.062;11.722;2023-01-23T02:13:23;37.50;;;25.13;;
47669;SDS011;33408;52.062;11.722;2023-01-23T02:15:56;40.20;;;24.35;;
47669;SDS011;33408;52.062;11.722;2023-01-23T02:18:24;40.45;;;26.13;;
47669;SDS011;33408;52.062;11.722;2023-01-23T02:20:54;41.55;;;27.45;;
47669;SDS011;33408;52.062;11.722;2023-01-23T02:23:34;41.25;;;25.85;;
47669;SDS011;33408;52.062;11.722;2023-01-23T02:26:10;41.53;;;26.33;;
47669;SDS011;33408;52.062;11.722;2023-01-23T02:28:41;43.13;;;25.50;;
47669;SDS011;33408;52.062;11.722;2023-01-23T02:31:10;36.90;;;25.20;;
47669;SDS011;33408;52.062;11.722;2023-01-23T02:33:43;39.42;;;24.35;;
47669;SDS011;33408;52.062;11.722;2023-01-23T02:36:11;37.63;;;26.92;;
47669;SDS011;33408;52.062;11.722;2023-01-23T02:38:39;39.97;;;27.63;;
47669;SDS011;33408;52.062;11.722;2023-01-23T02:41:19;41.67;;;26.33;;
47669;SDS011;33408;52.062;11.722;2023-01-23T02:43:50;43.55;;;27.73;;
47669;SDS011;33408;52.062;11.722;2023-01-23T02:46:19;37.40;;;26.08;;
47669;SDS011;33408;52.062;11.722;2023-01-23T02:48:46;46.13;;;26.83;;
47669;SDS011;33408;52.062;11.722;2023-01-23T02:51:13;40.22;;;25.75;;
47669;SDS011;33408;52.062;11.722;2023-01-23T02:53:41;42.53;;;29.15;;
47669;SDS011;33408;52.062;11.722;2023-01-23T02:56:07;40.78;;;27.45;;
47669;SDS011;33408;52.062;11.722;2023-01-23T02:58:35;38.08;;;25.95;;
47669;SDS011;33408;52.062;11.722;2023-01-23T03:01:19;39.55;;;26.40;;
47669;SDS011;33408;52.062;11.722;2023-01-23T03:03:45;41.15;;;27.35;;
47669;SDS011;33408;52.062;11.722;2023-01-23T03:06:15;39.13;;;25.75;;
47669;SDS011;33408;52.062;11.722;2023-01-23T03:08:42;40.63;;;26.98;;
47669;SDS011;33408;52.062;11.722;2023-01-23T03:11:13;48.05;;;30.40;;
47669;SDS011;33408;52.062;11.722;2023-01-23T03:13:42;42.38;;;27.42;;
47669;SDS011;33408;52.062;11.722;2023-01-23T03:16:09;40.22;;;26.80;;
47669;SDS011;33408;52.062;11.722;2023-01-23T03:18:36;43.33;;;26.80;;
47669;SDS011;33408;52.062;11.722;2023-01-23T03:21:02;41.95;;;27.75;;
47669;SDS011;33408;52.062;11.722;2023-01-23T03:23:30;37.58;;;25.70;;
47669;SDS011;33408;52.062;11.722;2023-01-23T03:25:56;39.75;;;25.77;;
47669;SDS011;33408;52.062;11.722;2023-01-23T03:28:23;37.55;;;25.25;;
47669;SDS011;33408;52.062;11.722;2023-01-23T03:31:09;40.40;;;26.33;;
47669;SDS011;33408;52.062;11.722;2023-01-23T03:33:37;40.53;;;26.90;;
47669;SDS011;33408;52.062;11.722;2023-01-23T03:36:07;38.30;;;26.92;;
47669;SDS011;33408;52.062;11.722;2023-01-23T03:38:33;43.63;;;27.10;;
47669;SDS011;33408;52.062;11.722;2023-01-23T03:41:00;39.42;;;25.45;;
47669;SDS011;33408;52.062;11.722;2023-01-23T03:43:44;42.70;;;26.70;;
47669;SDS011;33408;52.062;11.722;2023-01-23T03:46:12;40.78;;;26.95;;
47669;SDS011;33408;52.062;11.722;2023-01-23T03:48:39;44.30;;;27.98;;
47669;SDS011;33408;52.062;11.722;2023-01-23T03:51:06;45.70;;;27.88;;
47669;SDS011;33408;52.062;11.722;2023-01-23T03:53:32;40.90;;;25.55;;
47669;SDS011;33408;52.062;11.722;2023-01-23T03:55:59;40.15;;;26.73;;
47669;SDS011;33408;52.062;11.722;2023-01-23T03:58:26;43.67;;;28.48;;
47669;SDS011;33408;52.062;11.722;2023-01-23T04:00:52;41.72;;;26.35;;
47669;SDS011;33408;52.062;11.722;2023-01-23T04:03:20;44.80;;;27.58;;
47669;SDS011;33408;52.062;11.722;2023-01-23T04:05:47;39.03;;;27.15;;
47669;SDS011;33408;52.062;11.722;2023-01-23T04:08:14;43.17;;;26.55;;
47669;SDS011;33408;52.062;11.722;2023-01-23T04:10:40;39.08;;;26.30;;
47669;SDS011;33408;52.062;11.722;2023-01-23T04:13:07;41.92;;;28.58;;
47669;SDS011;33408;52.062;11.722;2023-01-23T04:15:33;44.90;;;28.08;;
47669;SDS011;33408;52.062;11.722;2023-01-23T04:18:00;45.63;;;28.88;;
47669;SDS011;33408;52.062;11.722;2023-01-23T04:20:28;44.92;;;28.45;;
47669;SDS011;33408;52.062;11.722;2023-01-23T04:22:55;43.25;;;27.63;;
47669;SDS011;33408;52.062;11.722;2023-01-23T04:25:21;46.00;;;28.63;;
47669;SDS011;33408;52.062;11.722;2023-01-23T04:27:48;45.30;;;28.23;;
47669;SDS011;33408;52.062;11.722;2023-01-23T04:30:15;46.45;;;30.10;;
47669;SDS011;33408;52.062;11.722;2023-01-23T04:32:42;40.70;;;26.98;;
47669;SDS011;33408;52.062;11.722;2023-01-23T04:35:08;45.42;;;28.33;;
47669;SDS011;33408;52.062;11.722;2023-01-23T04:37:36;42.55;;;28.33;;
47669;SDS011;33408;52.062;11.722;2023-01-23T04:40:03;46.42;;;27.60;;
47669;SDS011;33408;52.062;11.722;2023-01-23T04:42:30;44.40;;;29.65;;
47669;SDS011;33408;52.062;11.722;2023-01-23T04:44:57;41.25;;;25.92;;
47669;SDS011;33408;52.062;11.722;2023-01-23T04:47:23;49.05;;;29.05;;
47669;SDS011;33408;52.062;11.722;2023-01-23T04:49:50;45.78;;;28.10;;
47669;SDS011;33408;52.062;11.722;2023-01-23T04:52:16;47.70;;;29.55;;
47669;SDS011;33408;52.062;11.722;2023-01-23T04:54:44;44.33;;;29.17;;
47669;SDS011;33408;52.062;11.722;2023-01-23T04:57:11;44.08;;;27.95;;
47669;SDS011;33408;52.062;11.722;2023-01-23T04:59:37;47.17;;;29.80;;
47669;SDS011;33408;52.062;11.722;2023-01-23T05:02:04;53.95;;;30.23;;
47669;SDS011;33408;52.062;11.722;2023-01-23T05:04:31;47.40;;;28.67;;
47669;SDS011;33408;52.062;11.722;2023-01-23T05:06:57;47.78;;;28.38;;
47669;SDS011;33408;52.062;11.722;2023-01-23T05:09:24;46.65;;;30.17;;
47669;SDS011;33408;52.062;11.722;2023-01-23T05:11:52;47.15;;;29.92;;
47669;SDS011;33408;52.062;11.722;2023-01-23T05:14:18;43.08;;;27.83;;
47669;SDS011;33408;52.062;11.722;2023-01-23T05:16:46;51.08;;;28.80;;
47669;SDS011;33408;52.062;11.722;2023-01-23T05:19:12;51.00;;;29.77;;
47669;SDS011;33408;52.062;11.722;2023-01-23T05:21:39;48.85;;;29.33;;
47669;SDS011;33408;52.062;11.722;2023-01-23T05:24:06;50.80;;;30.73;;
47669;SDS011;33408;52.062;11.722;2023-01-23T05:26:34;49.35;;;30.27;;
47669;SDS011;33408;52.062;11.722;2023-01-23T05:29:02;51.60;;;29.58;;
47669;SDS011;33408;52.062;11.722;2023-01-23T05:31:29;53.92;;;32.17;;
47669;SDS011;33408;52.062;11.722;2023-01-23T05:33:56;49.70;;;29.70;;
47669;SDS011;33408;52.062;11.722;2023-01-23T05:36:23;49.97;;;30.70;;
47669;SDS011;33408;52.062;11.722;2023-01-23T05:38:49;53.17;;;30.60;;
47669;SDS011;33408;52.062;11.722;2023-01-23T05:41:16;48.95;;;30.67;;
47669;SDS011;33408;52.062;11.722;2023-01-23T05:43:43;48.97;;;29.80;;
47669;SDS011;33408;52.062;11.722;2023-01-23T05:46:11;52.33;;;31.27;;
47669;SDS011;33408;52.062;11.722;2023-01-23T05:48:37;46.85;;;28.63;;
47669;SDS011;33408;52.062;11.722;2023-01-23T05:51:04;51.05;;;30.25;;
47669;SDS011;33408;52.062;11.722;2023-01-23T05:53:31;49.28;;;29.80;;
47669;SDS011;33408;52.062;11.722;2023-01-23T05:55:57;55.58;;;28.95;;
47669;SDS011;33408;52.062;11.722;2023-01-23T05:58:24;49.28;;;29.35;;
47669;SDS011;33408;52.062;11.722;2023-01-23T06:00:50;48.42;;;29.45;;
47669;SDS011;33408;52.062;11.722;2023-01-23T06:03:18;50.90;;;29.20;;
47669;SDS011;33408;52.062;11.722;2023-01-23T06:05:45;45.92;;;27.77;;
47669;SDS011;33408;52.062;11.722;2023-01-23T06:08:11;51.05;;;30.67;;
47669;SDS011;33408;52.062;11.722;2023-01-23T06:10:38;50.10;;;28.40;;
47669;SDS011;33408;52.062;11.722;2023-01-23T06:13:04;48.05;;;28.83;;
47669;SDS011;33408;52.062;11.722;2023-01-23T06:15:31;49.53;;;28.88;;
47669;SDS011;33408;52.062;11.722;2023-01-23T06:17:58;50.08;;;29.30;;
47669;SDS011;33408;52.062;11.722;2023-01-23T06:20:26;48.75;;;30.30;;
47669;SDS011;33408;52.062;11.722;2023-01-23T06:22:53;44.45;;;29.33;;
47669;SDS011;33408;52.062;11.722;2023-01-23T06:25:19;47.97;;;27.67;;
47669;SDS011;33408;52.062;11.722;2023-01-23T06:27:47;51.42;;;30.00;;
47669;SDS011;33408;52.062;11.722;2023-01-23T06:30:14;49.80;;;30.02;;
47669;SDS011;33408;52.062;11.722;2023-01-23T06:32:40;45.80;;;27.67;;
47669;SDS011;33408;52.062;11.722;2023-01-23T06:35:07;48.33;;;27.90;;
47669;SDS011;33408;52.062;11.722;2023-01-23T06:37:35;52.78;;;31.27;;
47669;SDS011;33408;52.062;11.722;2023-01-23T06:40:02;50.72;;;31.65;;
47669;SDS011;33408;52.062;11.722;2023-01-23T06:42:29;51.85;;;30.25;;
47669;SDS011;33408;52.062;11.722;2023-01-23T06:44:55;50.25;;;28.35;;
47669;SDS011;33408;52.062;11.722;2023-01-23T06:47:22;52.03;;;29.92;;
47669;SDS011;33408;52.062;11.722;2023-01-23T06:49:48;45.92;;;27.42;;
47669;SDS011;33408;52.062;11.722;2023-01-23T06:52:15;54.53;;;29.75;;
47669;SDS011;33408;52.062;11.722;2023-01-23T06:54:43;50.97;;;29.50;;
47669;SDS011;33408;52.062;11.722;2023-01-23T06:57:10;45.95;;;28.80;;
47669;SDS011;33408;52.062;11.722;2023-01-23T06:59:37;48.90;;;28.25;;
47669;SDS011;33408;52.062;11.722;2023-01-23T07:02:03;51.67;;;30.77;;
47669;SDS011;33408;52.062;11.722;2023-01-23T07:04:30;46.88;;;28.98;;
47669;SDS011;33408;52.062;11.722;2023-01-23T07:06:57;50.35;;;28.13;;
47669;SDS011;33408;52.062;11.722;2023-01-23T07:09:24;53.15;;;29.48;;
47669;SDS011;33408;52.062;11.722;2023-01-23T07:11:52;54.47;;;29.52;;
47669;SDS011;33408;52.062;11.722;2023-01-23T07:14:18;48.83;;;29.45;;
47669;SDS011;33408;52.062;11.722;2023-01-23T07:16:45;48.70;;;29.00;;
47669;SDS011;33408;52.062;11.722;2023-01-23T07:19:12;48.47;;;27.70;;
47669;SDS011;33408;52.062;11.722;2023-01-23T07:21:38;46.17;;;27.02;;
47669;SDS011;33408;52.062;11.722;2023-01-23T07:24:05;49.85;;;28.98;;
47669;SDS011;33408;52.062;11.722;2023-01-23T07:26:32;49.78;;;28.00;;
47669;SDS011;33408;52.062;11.722;2023-01-23T07:29:00;48.30;;;28.17;;
47669;SDS011;33408;52.062;11.722;2023-01-23T07:31:26;52.10;;;29.98;;
47669;SDS011;33408;52.062;11.722;2023-01-23T07:33:53;49.88;;;29.83;;
47669;SDS011;33408;52.062;11.722;2023-01-23T07:36:19;51.58;;;29.27;;
47669;SDS011;33408;52.062;11.722;2023-01-23T07:38:46;51.88;;;27.23;;
47669;SDS011;33408;52.062;11.722;2023-01-23T07:41:12;49.47;;;27.52;;
47669;SDS011;33408;52.062;11.722;2023-01-23T07:43:39;50.35;;;28.85;;
47669;SDS011;33408;52.062;11.722;2023-01-23T07:46:07;44.92;;;27.13;;
47669;SDS011;33408;52.062;11.722;2023-01-23T07:48:35;50.63;;;28.67;;
47669;SDS011;33408;52.062;11.722;2023-01-23T07:51:01;50.47;;;27.80;;
47669;SDS011;33408;52.062;11.722;2023-01-23T07:53:28;48.58;;;28.63;;
47669;SDS011;33408;52.062;11.722;2023-01-23T07:55:55;47.53;;;28.63;;
47669;SDS011;33408;52.062;11.722;2023-01-23T07:58:22;51.22;;;28.23;;
47669;SDS011;33408;52.062;11.722;2023-01-23T08:00:48;45.78;;;27.92;;
47669;SDS011;33408;52.062;11.722;2023-01-23T08:03:16;49.65;;;28.88;;
47669;SDS011;33408;52.062;11.722;2023-01-23T08:05:46;50.60;;;28.52;;
47669;SDS011;33408;52.062;11.722;2023-01-23T08:08:13;47.13;;;27.30;;
47669;SDS011;33408;52.062;11.722;2023-01-23T08:10:40;50.42;;;27.30;;
47669;SDS011;33408;52.062;11.722;2023-01-23T08:13:07;46.55;;;27.77;;
47669;SDS011;33408;52.062;11.722;2023-01-23T08:15:33;48.35;;;28.15;;
47669;SDS011;33408;52.062;11.722;2023-01-23T08:18:02;45.75;;;28.42;;
47669;SDS011;33408;52.062;11.722;2023-01-23T08:20:30;42.30;;;26.75;;
47669;SDS011;33408;52.062;11.722;2023-01-23T08:22:56;42.47;;;26.67;;
47669;SDS011;33408;52.062;11.722;2023-01-23T08:25:24;47.55;;;28.27;;
47669;SDS011;33408;52.062;11.722;2023-01-23T08:27:51;42.88;;;27.23;;
47669;SDS011;33408;52.062;11.722;2023-01-23T08:30:17;46.58;;;26.98;;
47669;SDS011;33408;52.062;11.722;2023-01-23T08:32:44;44.10;;;27.63;;
47669;SDS011;33408;52.062;11.722;2023-01-23T08:35:11;42.70;;;26.73;;
47669;SDS011;33408;52.062;11.722;2023-01-23T08:37:39;53.30;;;29.00;;
47669;SDS011;33408;52.062;11.722;2023-01-23T08:40:06;47.90;;;27.77;;
47669;SDS011;33408;52.062;11.722;2023-01-23T08:42:34;51.03;;;27.45;;
47669;SDS011;33408;52.062;11.722;2023-01-23T08:45:00;47.42;;;28.13;;
47669;SDS011;33408;52.062;11.722;2023-01-23T08:47:27;48.08;;;27.80;;
47669;SDS011;33408;52.062;11.722;2023-01-23T08:49:54;47.10;;;27.80;;
47669;SDS011;33408;52.062;11.722;2023-01-23T08:52:21;47.83;;;27.13;;
47669;SDS011;33408;52.062;11.722;2023-01-23T08:54:49;45.78;;;27.05;;
47669;SDS011;33408;52.062;11.722;2023-01-23T08:57:15;43.10;;;25.98;;
47669;SDS011;33408;52.062;11.722;2023-01-23T08:59:42;45.03;;;27.30;;
47669;SDS011;33408;52.062;11.722;2023-01-23T09:02:09;44.20;;;26.23;;
47669;SDS011;33408;52.062;11.722;2023-01-23T09:04:37;48.30;;;27.92;;
47669;SDS011;33408;52.062;11.722;2023-01-23T09:07:03;48.33;;;31.50;;
47669;SDS011;33408;52.062;11.722;2023-01-23T09:09:30;51.13;;;30.70;;
47669;SDS011;33408;52.062;11.722;2023-01-23T09:11:58;47.58;;;29.30;;
47669;SDS011;33408;52.062;11.722;2023-01-23T09:14:24;51.58;;;29.08;;
47669;SDS011;33408;52.062;11.722;2023-01-23T09:16:51;46.85;;;28.50;;
47669;SDS011;33408;52.062;11.722;2023-01-23T09:19:17;47.90;;;29.63;;
47669;SDS011;33408;52.062;11.722;2023-01-23T09:21:44;44.88;;;27.60;;
47669;SDS011;33408;52.062;11.722;2023-01-23T09:24:10;44.08;;;27.55;;
47669;SDS011;33408;52.062;11.722;2023-01-23T09:26:37;44.33;;;26.83;;
47669;SDS011;33408;52.062;11.722;2023-01-23T09:29:05;50.67;;;29.33;;
47669;SDS011;33408;52.062;11.722;2023-01-23T09:31:32;49.17;;;29.40;;
47669;SDS011;33408;52.062;11.722;2023-01-23T09:33:58;50.20;;;27.83;;
47669;SDS011;33408;52.062;11.722;2023-01-23T09:36:27;46.30;;;27.45;;
47669;SDS011;33408;52.062;11.722;2023-01-23T09:38:53;45.80;;;27.92;;
47669;SDS011;33408;52.062;11.722;2023-01-23T09:41:22;49.25;;;28.00;;
47669;SDS011;33408;52.062;11.722;2023-01-23T09:43:52;41.83;;;26.63;;
47669;SDS011;33408;52.062;11.722;2023-01-23T09:46:26;46.25;;;28.20;;
47669;SDS011;33408;52.062;11.722;2023-01-23T09:48:58;50.13;;;28.27;;
47669;SDS011;33408;52.062;11.722;2023-01-23T09:51:30;45.28;;;27.67;;
47669;SDS011;33408;52.062;11.722;2023-01-23T09:54:12;46.47;;;27.38;;
47669;SDS011;33408;52.062;11.722;2023-01-23T09:56:44;44.67;;;26.40;;
47669;SDS011;33408;52.062;11.722;2023-01-23T09:59:13;43.50;;;26.60;;
47669;SDS011;33408;52.062;11.722;2023-01-23T10:01:44;44.78;;;28.10;;
47669;SDS011;33408;52.062;11.722;2023-01-23T10:04:10;43.25;;;26.73;;
47669;SDS011;33408;52.062;11.722;2023-01-23T10:06:52;47.00;;;26.52;;
47669;SDS011;33408;52.062;11.722;2023-01-23T10:09:35;47.25;;;28.38;;
47669;SDS011;33408;52.062;11.722;2023-01-23T10:12:28;41.67;;;25.02;;
47669;SDS011;33408;52.062;11.722;2023-01-23T10:15:16;41.58;;;25.33;;
47669;SDS011;33408;52.062;11.722;2023-01-23T10:17:50;47.40;;;26.63;;
47669;SDS011;33408;52.062;11.722;2023-01-23T10:20:26;43.33;;;27.13;;
47669;SDS011;33408;52.062;11.722;2023-01-23T10:23:07;48.33;;;28.50;;
47669;SDS011;33408;52.062;11.722;2023-01-23T10:25:43;47.55;;;26.33;;
47669;SDS011;33408;52.062;11.722;2023-01-23T10:28:15;44.60;;;26.75;;
47669;SDS011;33408;52.062;11.722;2023-01-23T10:30:50;45.72;;;26.60;;
47669;SDS011;33408;52.062;11.722;2023-01-23T10:33:26;49.60;;;27.48;;
47669;SDS011;33408;52.062;11.722;2023-01-23T10:36:00;43.13;;;26.38;;
47669;SDS011;33408;52.062;11.722;2023-01-23T10:38:32;46.13;;;27.05;;
47669;SDS011;33408;52.062;11.722;2023-01-23T10:41:03;41.60;;;26.38;;
47669;SDS011;33408;52.062;11.722;2023-01-23T10:43:38;44.08;;;27.85;;
47669;SDS011;33408;52.062;11.722;2023-01-23T10:46:09;44.58;;;27.25;;
47669;SDS011;33408;52.062;11.722;2023-01-23T10:48:40;49.00;;;29.97;;
47669;SDS011;33408;52.062;11.722;2023-01-23T10:51:27;47.30;;;29.48;;
47669;SDS011;33408;52.062;11.722;2023-01-23T10:54:02;45.65;;;28.42;;
47669;SDS011;33408;52.062;11.722;2023-01-23T10:56:30;46.20;;;28.10;;
47669;SDS011;33408;52.062;11.722;2023-01-23T10:58:59;46.60;;;28.20;;
47669;SDS011;33408;52.062;11.722;2023-01-23T11:01:28;47.90;;;28.52;;
47669;SDS011;33408;52.062;11.722;2023-01-23T11:03:58;50.00;;;29.88;;
47669;SDS011;33408;52.062;11.722;2023-01-23T11:06:35;46.17;;;29.95;;
47669;SDS011;33408;52.062;11.722;2023-01-23T11:09:01;47.40;;;29.60;;
47669;SDS011;33408;52.062;11.722;2023-01-23T11:11:29;46.80;;;28.38;;
47669;SDS011;33408;52.062;11.722;2023-01-23T11:14:04;48.70;;;28.17;;
47669;SDS011;33408;52.062;11.722;2023-01-23T11:16:32;48.42;;;28.08;;
47669;SDS011;33408;52.062;11.722;2023-01-23T11:19:09;47.35;;;29.50;;
47669;SDS011;33408;52.062;11.722;2023-01-23T11:21:51;47.75;;;27.98;;
47669;SDS011;33408;52.062;11.722;2023-01-23T11:24:20;51.97;;;30.58;;
47669;SDS011;33408;52.062;11.722;2023-01-23T11:26:56;51.03;;;29.38;;
47669;SDS011;33408;52.062;11.722;2023-01-23T11:29:26;44.80;;;29.60;;
47669;SDS011;33408;52.062;11.722;2023-01-23T11:31:54;50.22;;;29.52;;
47669;SDS011;33408;52.062;11.722;2023-01-23T11:34:28;49.40;;;29.63;;
47669;SDS011;33408;52.062;11.722;2023-01-23T11:36:59;58.55;;;33.65;;
47669;SDS011;33408;52.062;11.722;2023-01-23T11:39:44;56.30;;;32.55;;
47669;SDS011;33408;52.062;11.722;2023-01-23T11:44:43;45.03;;;27.83;;
47669;SDS011;33408;52.062;11.722;2023-01-23T11:47:16;47.15;;;30.05;;
47669;SDS011;33408;52.062;11.722;2023-01-23T11:50:02;55.92;;;31.20;;
47669;SDS011;33408;52.062;11.722;2023-01-23T11:52:40;49.28;;;30.90;;
47669;SDS011;33408;52.062;11.722;2023-01-23T11:55:24;52.55;;;29.20;;
47669;SDS011;33408;52.062;11.722;2023-01-23T11:58:05;42.70;;;28.40;;
47669;SDS011;33408;52.062;11.722;2023-01-23T12:00:43;44.85;;;29.48;;
47669;SDS011;33408;52.062;11.722;2023-01-23T12:03:26;46.33;;;29.23;;
47669;SDS011;33408;52.062;11.722;2023-01-23T12:06:28;47.97;;;30.10;;
47669;SDS011;33408;52.062;11.722;2023-01-23T12:09:04;54.67;;;31.73;;
47669;SDS011;33408;52.062;11.722;2023-01-23T12:11:38;50.88;;;29.92;;
47669;SDS011;33408;52.062;11.722;2023-01-23T12:14:12;46.85;;;31.10;;
47669;SDS011;33408;52.062;11.722;2023-01-23T12:17:01;50.40;;;31.95;;
47669;SDS011;33408;52.062;11.722;2023-01-23T12:19:40;52.58;;;31.88;;
47669;SDS011;33408;52.062;11.722;2023-01-23T12:22:20;60.03;;;33.75;;
47669;SDS011;33408;52.062;11.722;2023-01-23T12:24:59;55.22;;;32.65;;
47669;SDS011;33408;52.062;11.722;2023-01-23T12:27:35;50.05;;;31.58;;
47669;SDS011;33408;52.062;11.722;2023-01-23T12:30:14;50.00;;;30.20;;
47669;SDS011;33408;52.062;11.722;2023-01-23T12:33:10;53.03;;;34.58;;
47669;SDS011;33408;52.062;11.722;2023-01-23T12:35:53;52.53;;;32.10;;
47669;SDS011;33408;52.062;11.722;2023-01-23T12:38:29;55.95;;;31.50;;
47669;SDS011;33408;52.062;11.722;2023-01-23T12:41:04;53.97;;;31.20;;
47669;SDS011;33408;52.062;11.722;2023-01-23T12:43:37;48.80;;;30.13;;
47669;SDS011;33408;52.062;11.722;2023-01-23T12:46:12;48.22;;;29.10;;
47669;SDS011;33408;52.062;11.722;2023-01-23T12:48:43;54.13;;;30.05;;
47669;SDS011;33408;52.062;11.722;2023-01-23T12:51:15;52.28;;;31.75;;
47669;SDS011;33408;52.062;11.722;2023-01-23T12:53:49;49.15;;;29.52;;
47669;SDS011;33408;52.062;11.722;2023-01-23T12:56:22;50.63;;;30.63;;
47669;SDS011;33408;52.062;11.722;2023-01-23T12:58:52;51.13;;;32.33;;
47669;SDS011;33408;52.062;11.722;2023-01-23T13:01:29;55.17;;;31.25;;
47669;SDS011;33408;52.062;11.722;2023-01-23T13:04:10;49.60;;;32.75;;
47669;SDS011;33408;52.062;11.722;2023-01-23T13:09:48;55.13;;;33.58;;
47669;SDS011;33408;52.062;11.722;2023-01-23T13:12:29;56.25;;;33.85;;
47669;SDS011;33408;52.062;11.722;2023-01-23T13:17:49;54.10;;;34.58;;
47669;SDS011;33408;52.062;11.722;2023-01-23T13:20:23;56.50;;;36.17;;
47669;SDS011;33408;52.062;11.722;2023-01-23T13:23:20;60.25;;;34.55;;
47669;SDS011;33408;52.062;11.722;2023-01-23T13:25:50;60.63;;;38.53;;
47669;SDS011;33408;52.062;11.722;2023-01-23T13:28:53;61.17;;;37.50;;
47669;SDS011;33408;52.062;11.722;2023-01-23T13:31:25;60.70;;;37.20;;
47669;SDS011;33408;52.062;11.722;2023-01-23T13:33:58;63.45;;;38.33;;
47669;SDS011;33408;52.062;11.722;2023-01-23T13:36:27;59.10;;;34.95;;
47669;SDS011;33408;52.062;11.722;2023-01-23T13:38:59;53.63;;;35.13;;
47669;SDS011;33408;52.062;11.722;2023-01-23T13:41:30;57.08;;;33.97;;
47669;SDS011;33408;52.062;11.722;2023-01-23T13:44:02;60.63;;;37.17;;
47669;SDS011;33408;52.062;11.722;2023-01-23T13:46:39;59.40;;;36.22;;
47669;SDS011;33408;52.062;11.722;2023-01-23T13:49:19;61.10;;;37.83;;
47669;SDS011;33408;52.062;11.722;2023-01-23T13:52:13;55.97;;;35.17;;
47669;SDS011;33408;52.062;11.722;2023-01-23T13:54:56;56.85;;;35.45;;
47669;SDS011;33408;52.062;11.722;2023-01-23T13:57:54;55.40;;;35.97;;
47669;SDS011;33408;52.062;11.722;2023-01-23T14:00:21;59.60;;;37.22;;
47669;SDS011;33408;52.062;11.722;2023-01-23T14:02:51;62.22;;;39.17;;
47669;SDS011;33408;52.062;11.722;2023-01-23T14:05:39;55.95;;;37.63;;
47669;SDS011;33408;52.062;11.722;2023-01-23T14:08:11;62.40;;;41.42;;
47669;SDS011;33408;52.062;11.722;2023-01-23T14:10:44;59.70;;;39.53;;
47669;SDS011;33408;52.062;11.722;2023-01-23T14:13:13;53.78;;;37.08;;
47669;SDS011;33408;52.062;11.722;2023-01-23T14:15:44;55.78;;;36.00;;
47669;SDS011;33408;52.062;11.722;2023-01-23T14:18:31;51.25;;;36.53;;
47669;SDS011;33408;52.062;11.722;2023-01-23T14:21:02;55.65;;;39.28;;
47669;SDS011;33408;52.062;11.722;2023-01-23T14:23:34;56.78;;;36.97;;
47669;SDS011;33408;52.062;11.722;2023-01-23T14:26:03;57.20;;;36.93;;
47669;SDS011;33408;52.062;11.722;2023-01-23T14:28:32;52.40;;;35.08;;
47669;SDS011;33408;52.062;11.722;2023-01-23T14:31:00;52.47;;;33.67;;
47669;SDS011;33408;52.062;11.722;2023-01-23T14:33:28;53.33;;;35.63;;
47669;SDS011;33408;52.062;11.722;2023-01-23T14:36:04;53.85;;;38.08;;
47669;SDS011;33408;52.062;11.722;2023-01-23T14:38:31;52.20;;;33.92;;